createdAt,value
2017-10-01T00:02:06.910Z,94.40
2017-10-01T00:04:33.130Z,94.16
2017-10-01T00:06:59.395Z,93.99
2017-10-01T00:09:25.615Z,94.03
2017-10-01T00:11:51.855Z,94.34
2017-10-01T00:14:18.116Z,94.06
2017-10-01T00:16:44.336Z,94.13
2017-10-01T00:19:10.572Z,94.14
2017-10-01T00:21:36.839Z,94.00
2017-10-01T00:24:03.052Z,94.03
2017-10-01T00:26:29.380Z,94.38
2017-10-01T00:28:55.637Z,94.48
2017-10-01T00:31:21.860Z,94.47
2017-10-01T00:33:48.078Z,94.95
2017-10-01T00:36:14.338Z,94.99
2017-10-01T00:38:40.569Z,94.88
2017-10-01T00:41:06.794Z,94.77
2017-10-01T00:43:33.064Z,94.45
2017-10-01T00:45:59.299Z,93.94
2017-10-01T00:48:25.510Z,93.89
2017-10-01T00:50:51.738Z,93.52
2017-10-01T00:53:17.950Z,93.62
2017-10-01T00:55:44.169Z,93.38
2017-10-01T00:58:10.555Z,93.97
2017-10-01T01:00:36.745Z,94.10
2017-10-01T01:03:02.961Z,94.25
2017-10-01T01:05:29.176Z,94.47
2017-10-01T01:07:55.407Z,94.21
2017-10-01T01:10:21.662Z,94.21
2017-10-01T01:12:47.895Z,94.00
2017-10-01T01:15:14.118Z,94.16
2017-10-01T01:17:40.344Z,94.10
2017-10-01T01:20:06.562Z,94.04
2017-10-01T01:22:32.789Z,93.93
2017-10-01T01:24:59.020Z,93.86
2017-10-01T01:27:25.277Z,93.04
2017-10-01T01:29:51.496Z,92.95
2017-10-01T01:32:17.738Z,92.98
2017-10-01T01:34:44.004Z,92.80
2017-10-01T01:37:10.232Z,92.84
2017-10-01T01:39:36.450Z,93.02
2017-10-01T01:42:02.705Z,93.35
2017-10-01T01:44:28.913Z,93.64
2017-10-01T01:46:55.137Z,93.76
2017-10-01T01:49:21.399Z,93.71
2017-10-01T01:51:47.617Z,93.54
2017-10-01T01:54:13.825Z,93.79
2017-10-01T01:56:40.099Z,93.58
2017-10-01T01:59:06.462Z,93.19
2017-10-01T02:01:32.693Z,93.50
2017-10-01T02:03:58.964Z,92.94
2017-10-01T02:06:25.203Z,92.80
2017-10-01T02:08:51.421Z,92.75
2017-10-01T02:11:17.681Z,92.96
2017-10-01T02:13:43.918Z,93.12
2017-10-01T02:16:10.141Z,93.24
2017-10-01T02:18:36.396Z,93.08
2017-10-01T02:21:02.617Z,92.97
2017-10-01T02:23:28.969Z,93.31
2017-10-01T02:25:55.246Z,93.63
2017-10-01T02:28:21.469Z,93.44
2017-10-01T02:30:47.685Z,93.49
2017-10-01T02:33:13.952Z,93.59
2017-10-01T02:35:40.164Z,93.17
2017-10-01T02:38:06.394Z,93.23
2017-10-01T02:40:32.661Z,93.01
2017-10-01T02:42:58.891Z,93.18
2017-10-01T02:45:25.123Z,93.22
2017-10-01T02:47:51.392Z,93.39
2017-10-01T02:50:17.616Z,93.55
2017-10-01T02:52:43.917Z,93.55
2017-10-01T02:55:10.191Z,93.72
2017-10-01T02:57:36.429Z,93.50
2017-10-01T03:00:02.667Z,93.38
2017-10-01T03:02:28.923Z,93.33
2017-10-01T03:04:55.141Z,92.97
2017-10-01T03:07:21.365Z,92.99
2017-10-01T03:09:47.618Z,93.24
2017-10-01T03:12:13.856Z,93.18
2017-10-01T03:14:40.175Z,93.50
2017-10-01T03:17:06.450Z,93.15
2017-10-01T03:19:32.688Z,92.89
2017-10-01T03:21:58.913Z,93.11
2017-10-01T03:24:25.166Z,92.81
2017-10-01T03:26:51.398Z,92.86
2017-10-01T03:29:17.755Z,92.84
2017-10-01T03:31:44.020Z,93.03
2017-10-01T03:34:10.228Z,92.72
2017-10-01T03:36:36.453Z,93.19
2017-10-01T03:39:02.712Z,93.20
2017-10-01T03:41:28.944Z,92.85
2017-10-01T03:43:55.187Z,92.67
2017-10-01T03:46:21.459Z,92.80
2017-10-01T03:48:47.682Z,93.03
2017-10-01T03:51:13.893Z,93.09
2017-10-01T03:53:40.151Z,92.58
2017-10-01T03:56:06.403Z,92.69
2017-10-01T03:58:32.643Z,92.74
2017-10-01T04:00:58.889Z,92.78
2017-10-01T04:03:25.109Z,92.81
2017-10-01T04:05:51.325Z,93.18
2017-10-01T04:08:17.620Z,93.46
2017-10-01T04:10:43.855Z,93.48
2017-10-01T04:13:10.078Z,93.26
2017-10-01T04:15:36.338Z,93.42
2017-10-01T04:18:02.562Z,93.54
2017-10-01T04:20:28.808Z,93.69
2017-10-01T04:22:55.060Z,93.60
2017-10-01T04:25:21.425Z,93.51
2017-10-01T04:27:47.668Z,93.03
2017-10-01T04:30:13.948Z,93.25
2017-10-01T04:32:40.165Z,92.85
2017-10-01T04:35:06.391Z,92.65
2017-10-01T04:37:32.679Z,92.83
2017-10-01T04:39:58.889Z,92.78
2017-10-01T04:42:25.097Z,91.95
2017-10-01T04:44:51.364Z,92.13
2017-10-01T04:47:17.584Z,91.84
2017-10-01T04:49:43.817Z,91.91
2017-10-01T04:52:10.085Z,91.95
2017-10-01T04:54:36.303Z,91.82
2017-10-01T04:57:02.516Z,91.75
2017-10-01T04:59:28.778Z,92.22
2017-10-01T05:01:54.999Z,92.01
2017-10-01T05:04:21.229Z,91.89
2017-10-01T05:06:47.522Z,91.12
2017-10-01T05:09:13.781Z,90.98
2017-10-01T05:11:40.010Z,90.08
2017-10-01T05:14:06.282Z,90.57
2017-10-01T05:16:32.622Z,90.11
2017-10-01T05:18:58.851Z,89.99
2017-10-01T05:21:25.119Z,90.07
2017-10-01T05:23:51.352Z,89.17
2017-10-01T05:26:17.714Z,88.61
2017-10-01T05:28:43.968Z,89.03
2017-10-01T05:31:10.197Z,88.28
2017-10-01T05:33:36.420Z,88.72
2017-10-01T05:36:02.742Z,87.75
2017-10-01T05:38:28.957Z,87.58
2017-10-01T05:40:55.309Z,87.19
2017-10-01T05:43:21.571Z,86.82
2017-10-01T05:45:47.802Z,87.32
2017-10-01T05:48:14.025Z,86.57
2017-10-01T05:50:40.296Z,86.61
2017-10-01T05:53:06.689Z,85.80
2017-10-01T05:55:32.924Z,85.62
2017-10-01T05:57:59.207Z,84.54
2017-10-01T06:00:25.437Z,84.39
2017-10-01T06:02:51.774Z,84.14
2017-10-01T06:05:18.027Z,83.55
2017-10-01T06:07:44.242Z,83.14
2017-10-01T06:10:10.581Z,82.76
2017-10-01T06:12:36.836Z,82.59
2017-10-01T06:15:03.161Z,82.31
2017-10-01T06:17:29.388Z,82.67
2017-10-01T06:19:55.648Z,83.91
2017-10-01T06:22:21.874Z,82.29
2017-10-01T06:24:48.077Z,81.63
2017-10-01T06:27:14.335Z,82.80
2017-10-01T06:29:40.553Z,80.94
2017-10-01T06:32:06.800Z,81.42
2017-10-01T06:34:33.066Z,81.58
2017-10-01T06:36:59.292Z,82.56
2017-10-01T06:39:25.546Z,81.68
2017-10-01T06:41:51.817Z,82.51
2017-10-01T06:44:18.037Z,82.12
2017-10-01T06:46:44.252Z,81.91
2017-10-01T06:49:10.503Z,80.52
2017-10-01T06:51:36.896Z,81.27
2017-10-01T06:54:03.139Z,82.99
2017-10-01T06:56:29.414Z,82.87
2017-10-01T06:58:55.659Z,82.86
2017-10-01T07:01:21.892Z,81.16
2017-10-01T07:03:48.159Z,83.06
2017-10-01T07:06:14.375Z,82.82
2017-10-01T07:08:40.606Z,83.22
2017-10-01T07:11:06.863Z,82.27
2017-10-01T07:13:33.073Z,82.15
2017-10-01T07:15:59.305Z,81.30
2017-10-01T07:18:25.581Z,81.10
2017-10-01T07:20:51.797Z,81.47
2017-10-01T07:23:18.062Z,81.25
2017-10-01T07:25:44.356Z,79.90
2017-10-01T07:28:10.576Z,80.48
2017-10-01T07:30:36.800Z,81.60
2017-10-01T07:33:03.076Z,79.70
2017-10-01T07:35:29.290Z,78.86
2017-10-01T07:37:55.656Z,78.25
2017-10-01T07:40:21.932Z,78.95
2017-10-01T07:42:48.145Z,79.23
2017-10-01T07:45:14.368Z,79.56
2017-10-01T07:47:40.640Z,79.29
2017-10-01T07:50:06.875Z,76.45
2017-10-01T07:52:33.116Z,76.98
2017-10-01T07:54:59.381Z,74.12
2017-10-01T07:57:25.624Z,73.68
2017-10-01T07:59:51.859Z,73.27
2017-10-01T08:02:18.122Z,72.69
2017-10-01T08:04:44.340Z,72.38
2017-10-01T08:07:10.604Z,71.22
2017-10-01T08:09:36.899Z,69.62
2017-10-01T08:12:03.122Z,68.78
2017-10-01T08:14:29.347Z,68.70
2017-10-01T08:16:55.620Z,70.25
2017-10-01T08:19:21.948Z,68.73
2017-10-01T08:21:48.170Z,69.88
2017-10-01T08:24:14.440Z,65.84
2017-10-01T08:26:40.666Z,65.15
2017-10-01T08:29:06.881Z,64.94
2017-10-01T08:31:33.156Z,66.11
2017-10-01T08:33:59.504Z,65.14
2017-10-01T08:36:25.753Z,64.49
2017-10-01T08:38:52.018Z,63.00
2017-10-01T08:41:18.241Z,61.63
2017-10-01T08:43:44.459Z,59.29
2017-10-01T08:46:10.734Z,58.41
2017-10-01T08:48:36.951Z,58.76
2017-10-01T08:51:03.157Z,57.38
2017-10-01T08:53:29.428Z,55.31
2017-10-01T08:55:55.782Z,54.79
2017-10-01T08:58:22.021Z,50.14
2017-10-01T09:00:48.430Z,50.35
2017-10-01T09:03:14.658Z,48.18
2017-10-01T09:05:40.881Z,48.00
2017-10-01T09:08:07.142Z,49.84
2017-10-01T09:10:33.379Z,49.04
2017-10-01T09:12:59.651Z,49.62
2017-10-01T09:15:25.922Z,53.08
2017-10-01T09:17:52.150Z,58.46
2017-10-01T09:20:18.385Z,56.47
2017-10-01T09:22:44.667Z,53.99
2017-10-01T09:25:10.885Z,51.79
2017-10-01T09:27:37.128Z,52.90
2017-10-01T09:30:03.396Z,51.35
2017-10-01T09:32:29.628Z,51.26
2017-10-01T09:34:55.848Z,50.26
2017-10-01T09:37:22.118Z,48.45
2017-10-01T09:39:48.374Z,46.30
2017-10-01T09:42:14.640Z,47.17
2017-10-01T09:44:40.944Z,46.11
2017-10-01T09:47:07.167Z,42.18
2017-10-01T09:49:33.439Z,40.48
2017-10-01T09:51:59.712Z,41.85
2017-10-01T09:54:25.964Z,44.42
2017-10-01T09:56:52.191Z,43.06
2017-10-01T09:59:18.472Z,40.93
2017-10-01T10:01:44.742Z,41.10
2017-10-01T10:04:11.028Z,42.75
2017-10-01T10:06:37.334Z,44.39
2017-10-01T10:09:03.624Z,43.81
2017-10-01T10:11:29.842Z,45.10
2017-10-01T10:13:56.127Z,44.25
2017-10-01T10:16:22.367Z,47.15
2017-10-01T10:18:48.603Z,47.54
2017-10-01T10:21:14.886Z,48.66
2017-10-01T10:23:41.135Z,47.09
2017-10-01T10:26:07.377Z,44.40
2017-10-01T10:28:33.655Z,44.73
2017-10-01T10:30:59.880Z,42.45
2017-10-01T10:33:26.133Z,44.04
2017-10-01T10:35:52.390Z,44.67
2017-10-01T10:38:18.606Z,42.70
2017-10-01T10:40:44.829Z,42.75
2017-10-01T10:43:11.096Z,43.13
2017-10-01T10:45:37.297Z,41.27
2017-10-01T10:48:03.550Z,41.97
2017-10-01T10:50:29.797Z,43.10
2017-10-01T10:52:56.048Z,42.43
2017-10-01T10:55:22.325Z,41.20
2017-10-01T10:57:48.597Z,39.69
2017-10-01T11:00:14.852Z,37.51
2017-10-01T11:02:41.089Z,37.23
2017-10-01T11:05:07.394Z,36.53
2017-10-01T11:07:33.627Z,38.08
2017-10-01T11:09:59.843Z,36.85
2017-10-01T11:12:26.125Z,32.92
2017-10-01T11:14:52.381Z,33.17
2017-10-01T11:17:18.623Z,34.91
2017-10-01T11:19:44.894Z,35.71
2017-10-01T11:22:11.142Z,35.59
2017-10-01T11:24:37.357Z,35.52
2017-10-01T11:27:03.627Z,35.45
2017-10-01T11:29:29.845Z,35.70
2017-10-01T11:31:56.156Z,36.93
2017-10-01T11:34:22.402Z,36.85
2017-10-01T11:36:48.635Z,37.64
2017-10-01T11:39:14.860Z,35.70
2017-10-01T11:41:41.128Z,37.15
2017-10-01T11:44:07.371Z,38.35
2017-10-01T11:46:33.600Z,37.81
2017-10-01T11:48:59.903Z,37.59
2017-10-01T11:51:26.151Z,37.56
2017-10-01T11:53:52.399Z,37.91
2017-10-01T11:56:18.651Z,37.91
2017-10-01T11:58:44.881Z,39.33
2017-10-01T12:01:11.109Z,36.84
2017-10-01T12:03:37.384Z,37.80
2017-10-01T12:06:03.662Z,37.10
2017-10-01T12:08:29.925Z,38.12
2017-10-01T12:10:56.207Z,38.21
2017-10-01T12:13:22.439Z,38.69
2017-10-01T12:15:48.667Z,36.83
2017-10-01T12:18:14.962Z,36.19
2017-10-01T12:20:41.195Z,36.99
2017-10-01T12:23:07.441Z,36.43
2017-10-01T12:25:33.735Z,36.99
2017-10-01T12:27:59.983Z,36.48
2017-10-01T12:30:26.208Z,35.09
2017-10-01T12:32:52.496Z,34.30
2017-10-01T12:35:18.748Z,34.06
2017-10-01T12:37:45.009Z,33.60
2017-10-01T12:40:11.323Z,34.27
2017-10-01T12:42:37.583Z,34.55
2017-10-01T12:45:03.821Z,35.35
2017-10-01T12:47:30.123Z,36.43
2017-10-01T12:49:56.386Z,36.58
2017-10-01T12:52:22.614Z,37.17
2017-10-01T12:54:48.860Z,37.72
2017-10-01T12:57:15.084Z,38.89
2017-10-01T12:59:42.351Z,38.37
2017-10-01T13:02:08.613Z,38.22
2017-10-01T13:04:34.854Z,38.94
2017-10-01T13:09:37.019Z,36.61
2017-10-01T13:12:03.356Z,36.35
2017-10-01T13:14:29.750Z,38.22
2017-10-01T13:16:55.966Z,38.28
2017-10-01T13:19:22.257Z,37.52
2017-10-01T13:21:48.508Z,37.62
2017-10-01T13:24:14.762Z,37.61
2017-10-01T13:26:41.050Z,38.25
2017-10-01T13:29:07.308Z,38.41
2017-10-01T13:31:33.563Z,38.61
2017-10-01T13:33:59.849Z,38.31
2017-10-01T13:36:26.100Z,38.79
2017-10-01T13:38:52.339Z,39.33
2017-10-01T13:41:18.616Z,40.26
2017-10-01T13:43:44.864Z,41.84
2017-10-01T13:46:11.092Z,42.83
2017-10-01T13:48:37.344Z,42.50
2017-10-01T13:51:03.582Z,42.40
2017-10-01T13:53:30.009Z,43.57
2017-10-01T13:55:56.268Z,44.33
2017-10-01T13:58:22.516Z,44.92
2017-10-01T14:00:48.743Z,45.33
2017-10-01T14:03:15.017Z,46.95
2017-10-01T14:05:41.249Z,48.37
2017-10-01T14:08:07.484Z,49.13
2017-10-01T14:10:33.768Z,50.82
2017-10-01T14:12:59.992Z,51.59
2017-10-01T14:15:26.220Z,52.36
2017-10-01T14:17:52.497Z,51.60
2017-10-01T14:20:18.715Z,51.87
2017-10-01T14:22:44.945Z,52.77
2017-10-01T14:25:11.263Z,52.30
2017-10-01T14:27:37.521Z,51.96
2017-10-01T14:30:03.768Z,53.04
2017-10-01T14:32:30.049Z,52.86
2017-10-01T14:34:56.289Z,52.67
2017-10-01T14:37:22.526Z,53.25
2017-10-01T14:39:48.860Z,52.26
2017-10-01T14:42:15.096Z,52.72
2017-10-01T14:44:41.311Z,54.60
2017-10-01T14:47:07.592Z,53.36
2017-10-01T14:49:33.942Z,53.84
2017-10-01T14:52:00.171Z,55.98
2017-10-01T14:54:26.401Z,63.74
2017-10-01T14:56:52.649Z,56.99
2017-10-01T14:59:18.877Z,58.59
2017-10-01T15:01:45.124Z,59.83
2017-10-01T15:04:11.345Z,64.44
2017-10-01T15:06:37.560Z,66.79
2017-10-01T15:09:03.838Z,62.25
2017-10-01T15:11:30.051Z,61.05
2017-10-01T15:13:56.278Z,66.56
2017-10-01T15:16:22.529Z,67.38
2017-10-01T15:18:48.736Z,59.78
2017-10-01T15:21:14.939Z,64.72
2017-10-01T15:23:41.267Z,69.21
2017-10-01T15:26:07.493Z,70.42
2017-10-01T15:28:33.757Z,69.55
2017-10-01T15:30:59.985Z,66.97
2017-10-01T15:33:26.208Z,71.36
2017-10-01T15:35:52.498Z,72.37
2017-10-01T15:38:18.771Z,67.38
2017-10-01T15:40:45.017Z,72.73
2017-10-01T15:43:11.309Z,68.95
2017-10-01T15:45:37.558Z,71.05
2017-10-01T15:48:03.825Z,72.88
2017-10-01T15:50:30.244Z,76.65
2017-10-01T15:52:56.509Z,76.12
2017-10-01T15:55:22.722Z,77.65
2017-10-01T15:57:48.993Z,78.53
2017-10-01T16:00:15.464Z,78.27
2017-10-01T16:02:41.693Z,80.00
2017-10-01T16:05:07.977Z,80.49
2017-10-01T16:07:34.218Z,81.42
2017-10-01T16:10:00.457Z,79.19
2017-10-01T16:12:26.740Z,81.13
2017-10-01T16:14:52.981Z,83.42
2017-10-01T16:17:19.220Z,81.80
2017-10-01T16:19:45.492Z,83.11
2017-10-01T16:22:11.735Z,83.75
2017-10-01T16:24:38.040Z,84.50
2017-10-01T16:27:04.317Z,83.53
2017-10-01T16:29:30.578Z,80.13
2017-10-01T16:31:56.837Z,79.40
2017-10-01T16:34:23.107Z,81.59
2017-10-01T16:36:49.352Z,82.78
2017-10-01T16:39:15.578Z,84.58
2017-10-01T16:41:41.873Z,82.65
2017-10-01T16:44:08.274Z,82.33
2017-10-01T16:46:34.509Z,83.10
2017-10-01T16:49:00.777Z,83.59
2017-10-01T16:51:26.999Z,83.81
2017-10-01T16:53:53.237Z,84.34
2017-10-01T16:56:19.507Z,84.30
2017-10-01T16:58:45.750Z,84.37
2017-10-01T17:01:11.983Z,84.77
2017-10-01T17:03:38.250Z,84.95
2017-10-01T17:06:04.466Z,85.15
2017-10-01T17:08:30.684Z,85.77
2017-10-01T17:10:56.946Z,86.17
2017-10-01T17:13:23.177Z,86.43
2017-10-01T17:15:49.409Z,86.74
2017-10-01T17:18:15.669Z,86.52
2017-10-01T17:20:41.897Z,86.42
2017-10-01T17:23:08.103Z,86.99
2017-10-01T17:25:34.390Z,87.64
2017-10-01T17:28:00.595Z,87.08
2017-10-01T17:30:26.952Z,87.52
2017-10-01T17:32:53.215Z,87.36
2017-10-01T17:35:19.413Z,87.63
2017-10-01T17:37:45.699Z,87.96
2017-10-01T17:40:11.986Z,91.96
2017-10-01T17:42:38.211Z,89.17
2017-10-01T17:45:04.419Z,88.47
2017-10-01T17:47:30.671Z,88.01
2017-10-01T17:49:56.906Z,88.66
2017-10-01T17:52:23.130Z,89.09
2017-10-01T17:57:30.642Z,90.47
2017-10-01T17:59:56.916Z,91.04
2017-10-01T18:02:23.137Z,90.99
2017-10-01T18:04:49.486Z,90.67
2017-10-01T18:07:15.752Z,90.82
2017-10-01T18:09:41.985Z,91.54
2017-10-01T18:12:08.202Z,91.72
2017-10-01T18:14:34.464Z,91.98
2017-10-01T18:17:01.697Z,91.53
2017-10-01T18:19:27.933Z,91.23
2017-10-01T18:21:54.141Z,91.20
2017-10-01T18:24:20.440Z,91.05
2017-10-01T18:26:46.728Z,90.90
2017-10-01T18:29:12.950Z,91.23
2017-10-01T18:31:39.200Z,91.76
2017-10-01T18:34:05.416Z,91.82
2017-10-01T18:36:31.651Z,91.79
2017-10-01T18:38:57.899Z,92.36
2017-10-01T18:41:24.129Z,92.76
2017-10-01T18:43:50.377Z,93.22
2017-10-01T18:46:16.617Z,93.64
2017-10-01T18:48:42.827Z,93.50
2017-10-01T18:51:09.026Z,93.28
2017-10-01T18:53:35.271Z,93.51
2017-10-01T18:56:01.486Z,93.29
2017-10-01T18:58:27.699Z,93.26
2017-10-01T19:00:53.935Z,93.33
2017-10-01T19:03:20.121Z,93.27
2017-10-01T19:05:46.341Z,93.33
2017-10-01T19:08:12.574Z,93.66
2017-10-01T19:10:38.786Z,93.66
2017-10-01T19:13:04.999Z,93.54
2017-10-01T19:15:31.243Z,93.31
2017-10-01T19:17:57.440Z,93.65
2017-10-01T19:20:23.648Z,94.20
2017-10-01T19:22:49.896Z,94.28
2017-10-01T19:25:16.096Z,94.36
2017-10-01T19:27:42.290Z,94.65
2017-10-01T19:30:08.686Z,94.93
2017-10-01T19:32:34.905Z,94.98
2017-10-01T19:35:01.169Z,94.99
2017-10-01T19:37:27.402Z,94.57
2017-10-01T19:39:53.662Z,95.20
2017-10-01T19:42:19.895Z,95.26
2017-10-01T19:44:46.151Z,94.89
2017-10-01T19:47:12.485Z,94.82
2017-10-01T19:49:38.699Z,94.54
2017-10-01T19:52:04.938Z,94.60
2017-10-01T19:54:31.206Z,94.58
2017-10-01T19:56:57.404Z,94.37
2017-10-01T19:59:23.656Z,94.76
2017-10-01T20:01:49.891Z,94.89
2017-10-01T20:04:16.101Z,95.02
2017-10-01T20:06:42.299Z,94.97
2017-10-01T20:09:08.644Z,95.00
2017-10-01T20:11:34.875Z,95.18
2017-10-01T20:14:01.093Z,95.23
2017-10-01T20:16:27.447Z,95.00
2017-10-01T20:18:53.645Z,94.85
2017-10-01T20:21:19.844Z,95.05
2017-10-01T20:23:46.089Z,95.11
2017-10-01T20:26:12.279Z,95.03
2017-10-01T20:28:38.487Z,95.24
2017-10-01T20:31:04.720Z,94.77
2017-10-01T20:33:30.930Z,94.97
2017-10-01T20:35:57.381Z,95.07
2017-10-01T20:38:23.647Z,95.21
2017-10-01T20:40:49.863Z,94.97
2017-10-01T20:43:16.070Z,94.93
2017-10-01T20:45:42.315Z,95.71
2017-10-01T20:48:08.522Z,95.33
2017-10-01T20:50:34.846Z,95.34
2017-10-01T20:53:01.138Z,95.42
2017-10-01T20:55:27.403Z,95.21
2017-10-01T20:57:53.613Z,95.19
2017-10-01T21:00:19.854Z,94.77
2017-10-01T21:02:46.111Z,95.09
2017-10-01T21:05:12.341Z,95.30
2017-10-01T21:07:38.527Z,95.08
2017-10-01T21:10:04.775Z,95.32
2017-10-01T21:12:30.985Z,95.49
2017-10-01T21:14:57.165Z,95.33
2017-10-01T21:17:23.403Z,95.15
2017-10-01T21:19:49.619Z,95.03
2017-10-01T21:22:15.834Z,95.04
2017-10-01T21:24:42.078Z,95.09
2017-10-01T21:27:08.290Z,95.08
2017-10-01T21:29:34.523Z,95.04
2017-10-01T21:32:00.796Z,94.99
2017-10-01T21:34:27.011Z,94.74
2017-10-01T21:36:53.202Z,95.28
2017-10-01T21:39:19.434Z,95.31
2017-10-01T21:41:45.652Z,95.29
2017-10-01T21:44:11.868Z,95.32
2017-10-01T21:46:38.092Z,95.36
2017-10-01T21:49:04.316Z,95.55
2017-10-01T21:51:30.576Z,95.10
2017-10-01T21:53:56.856Z,95.00
2017-10-01T21:56:23.062Z,95.57
2017-10-01T21:58:49.275Z,95.47
2017-10-01T22:01:15.723Z,95.16
2017-10-01T22:03:41.919Z,95.13
2017-10-01T22:06:08.140Z,95.26
2017-10-01T22:08:34.419Z,95.45
2017-10-01T22:11:00.630Z,95.49
2017-10-01T22:13:26.833Z,95.74
2017-10-01T22:15:53.076Z,95.94
2017-10-01T22:18:19.294Z,95.60
2017-10-01T22:20:45.514Z,95.64
2017-10-01T22:23:11.779Z,95.45
2017-10-01T22:25:38.000Z,95.35
2017-10-01T22:28:04.230Z,95.46
2017-10-01T22:30:30.466Z,95.41
2017-10-01T22:32:57.065Z,95.49
2017-10-01T22:35:23.535Z,95.94
2017-10-01T22:37:49.959Z,95.70
2017-10-01T22:40:16.396Z,95.87
2017-10-01T22:42:42.628Z,95.77
2017-10-01T22:45:08.869Z,95.78
2017-10-01T22:47:35.089Z,95.49
2017-10-01T22:50:01.310Z,95.58
2017-10-01T22:52:27.552Z,95.32
2017-10-01T22:54:53.753Z,95.02
2017-10-01T22:57:19.953Z,94.89
2017-10-01T22:59:46.198Z,94.75
2017-10-01T23:02:12.419Z,94.80
2017-10-01T23:04:38.649Z,95.61
2017-10-01T23:07:04.885Z,95.47
2017-10-01T23:09:31.107Z,95.42
2017-10-01T23:11:57.305Z,95.79
2017-10-01T23:14:23.561Z,95.81
2017-10-01T23:16:49.779Z,95.80
2017-10-01T23:19:16.006Z,95.69
2017-10-01T23:21:42.242Z,95.62
2017-10-01T23:24:08.491Z,95.51
2017-10-01T23:26:34.708Z,95.57
2017-10-01T23:29:00.997Z,95.69
2017-10-01T23:31:27.235Z,95.74
2017-10-01T23:33:53.476Z,95.67
2017-10-01T23:36:19.859Z,95.73
2017-10-01T23:38:46.087Z,95.63
2017-10-01T23:41:12.312Z,95.84
2017-10-01T23:43:38.590Z,95.66
2017-10-01T23:46:04.818Z,95.89
2017-10-01T23:48:31.038Z,96.24
2017-10-01T23:50:57.307Z,95.91
2017-10-01T23:53:23.548Z,96.22
2017-10-01T23:55:49.781Z,96.12
2017-10-01T23:58:16.034Z,96.18
